Time;durP1;ratioP1;P1;durP2;ratioP2;P2;SDS_P1;SDS_P2;PMS_P1;PMS_P2;Temp;Humidity;BMP_temperature;BMP_pressure;BME280_temperature;BME280_humidity;BME280_pressure;Samples;Min_cycle;Max_cycle;Signal;HPM_P1;HPM_P2
2021/05/17 00:00:30;;;;;;;46.22;24.65;;;;;;;16.70;nan;99588.97;5011909;28;20187;-79
2021/05/17 00:02:59;;;;;;;44.97;24.45;;;;;;;16.39;nan;99600.34;5029646;28;20038;-79
2021/05/17 00:05:25;;;;;;;27.52;18.90;;;;;;;16.55;nan;99597.28;5029720;28;20022;-79
2021/05/17 00:07:51;;;;;;;46.25;25.00;;;;;;;16.48;nan;99595.59;5029466;28;20040;-79
2021/05/17 00:10:16;;;;;;;52.53;26.80;;;;;;;16.31;nan;99592.38;5029622;28;20057;-79
2021/05/17 00:12:42;;;;;;;59.30;28.67;;;;;;;16.47;nan;99588.50;5011354;28;20032;-79
2021/05/17 00:15:11;;;;;;;43.33;21.88;;;;;;;16.33;nan;99582.16;5029878;28;20080;-79
2021/05/17 00:17:37;;;;;;;41.00;23.65;;;;;;;16.11;nan;99592.28;5011350;28;20036;-79
2021/05/17 00:20:05;;;;;;;48.88;24.02;;;;;;;16.26;nan;99589.44;5011643;28;20036;-79
2021/05/17 00:22:32;;;;;;;59.83;27.63;;;;;;;16.27;nan;99591.94;5030552;28;20434;-79
2021/05/17 00:24:57;;;;;;;52.33;27.33;;;;;;;16.37;nan;99574.44;5029184;28;20211;-79
2021/05/17 00:27:23;;;;;;;40.65;22.75;;;;;;;16.37;nan;99580.72;5029383;28;20029;-78
2021/05/17 00:29:48;;;;;;;33.58;21.75;;;;;;;16.45;nan;99572.41;5029316;28;20032;-79
2021/05/17 00:32:14;;;;;;;45.92;24.02;;;;;;;16.49;nan;99575.53;5011256;28;20029;-79
2021/05/17 00:34:39;;;;;;;36.47;22.98;;;;;;;16.70;nan;99574.56;5029316;28;20068;-79
2021/05/17 00:37:06;;;;;;;33.83;21.90;;;;;;;16.69;nan;99578.34;5028984;28;20492;-79
2021/05/17 00:39:32;;;;;;;52.05;26.45;;;;;;;16.76;nan;99579.22;5029039;28;20033;-79
2021/05/17 00:41:57;;;;;;;72.22;30.88;;;;;;;16.76;nan;99582.78;5029245;28;20091;-79
2021/05/17 00:44:24;;;;;;;30.05;18.50;;;;;;;16.71;nan;99576.25;5028937;28;20472;-79
2021/05/17 00:46:51;;;;;;;54.05;25.77;;;;;;;16.78;nan;99571.72;5028873;28;20104;-79
2021/05/17 00:49:17;;;;;;;58.13;26.10;;;;;;;16.80;nan;99579.66;5011153;28;20025;-79
2021/05/17 00:51:42;;;;;;;38.22;21.63;;;;;;;16.73;nan;99572.28;5028712;28;20044;-78
2021/05/17 00:54:08;;;;;;;60.08;26.42;;;;;;;16.69;nan;99568.31;5028705;28;20036;-79
2021/05/17 00:56:34;;;;;;;48.92;24.98;;;;;;;16.71;nan;99577.09;5011969;28;20041;-79
2021/05/17 00:59:00;;;;;;;38.40;21.00;;;;;;;16.52;nan;99564.28;5028607;28;20029;-79
2021/05/17 01:01:25;;;;;;;37.55;21.70;;;;;;;16.48;nan;99568.44;5029242;28;20160;-79
2021/05/17 01:03:51;;;;;;;43.63;24.08;;;;;;;16.50;nan;99572.63;5029048;28;20033;-79
2021/05/17 01:06:22;;;;;;;33.00;21.27;;;;;;;16.57;nan;99571.81;5010872;28;20113;-79
2021/05/17 01:09:03;;;;;;;51.78;26.25;;;;;;;16.31;nan;99568.81;5028683;28;20030;-79
2021/05/17 01:11:29;;;;;;;49.72;24.48;;;;;;;16.43;nan;99566.31;5028719;28;20160;-79
2021/05/17 01:14:00;;;;;;;37.80;21.52;;;;;;;16.43;nan;99562.78;5028729;28;20029;-79
2021/05/17 01:16:26;;;;;;;34.38;21.75;;;;;;;16.46;nan;99563.22;5028559;28;20104;-79
2021/05/17 01:18:52;;;;;;;34.38;21.10;;;;;;;16.50;nan;99566.38;5010854;28;20167;-79
2021/05/17 01:21:20;;;;;;;43.47;21.83;;;;;;;16.43;nan;99562.78;5028522;28;20040;-79
2021/05/17 01:23:55;;;;;;;34.85;22.20;;;;;;;16.33;nan;99563.16;5010770;28;20033;-79
2021/05/17 01:26:23;;;;;;;36.55;22.08;;;;;;;16.09;nan;99573.47;5010515;28;20037;-79
2021/05/17 01:28:51;;;;;;;47.10;23.58;;;;;;;16.28;nan;99566.50;5010228;28;20081;-79
2021/05/17 01:31:17;;;;;;;39.28;23.42;;;;;;;16.35;nan;99562.97;5013917;28;20056;-79
2021/05/17 01:33:44;;;;;;;22.60;17.02;;;;;;;16.25;nan;99566.03;5033086;28;20029;-80
2021/05/17 01:36:12;;;;;;;59.45;28.55;;;;;;;16.14;nan;99564.75;5032331;28;20386;-80
2021/05/17 01:38:43;;;;;;;51.72;26.08;;;;;;;16.05;nan;99565.94;5031968;28;20044;-80
2021/05/17 01:41:11;;;;;;;24.88;17.08;;;;;;;15.92;nan;99572.13;5032330;28;20030;-80
2021/05/17 01:43:45;;;;;;;23.48;17.75;;;;;;;15.65;nan;99572.97;5032126;28;20037;-79
2021/05/17 01:46:17;;;;;;;69.35;29.38;;;;;;;15.78;nan;99578.50;5032089;28;20056;-79
2021/05/17 01:48:43;;;;;;;130.77;34.83;;;;;;;15.58;nan;99571.03;5014177;28;20546;-79
2021/05/17 01:51:15;;;;;;;126.60;20.65;;;;;;;15.52;nan;99579.09;5014186;28;20033;-79
2021/05/17 01:53:42;;;;;;;80.28;18.38;;;;;;;15.63;nan;99570.44;5031751;28;20056;-79
2021/05/17 01:56:08;;;;;;;106.65;21.17;;;;;;;15.54;nan;99572.44;5031837;28;20033;-78
2021/05/17 01:58:36;;;;;;;88.55;17.02;;;;;;;15.55;nan;99570.56;5013438;28;20041;-79
2021/05/17 02:01:20;;;;;;;50.47;15.25;;;;;;;15.59;nan;99571.88;5031582;28;20034;-79
2021/05/17 02:03:48;;;;;;;65.72;16.65;;;;;;;15.55;nan;99576.84;5031854;28;20481;-79
2021/05/17 02:06:15;;;;;;;43.08;15.55;;;;;;;15.56;nan;99575.81;5032518;28;20033;-79
2021/05/17 02:08:43;;;;;;;119.80;18.35;;;;;;;15.61;nan;99567.94;5032844;28;20505;-79
2021/05/17 02:11:12;;;;;;;205.77;29.10;;;;;;;15.78;nan;99573.91;5031626;28;20487;-79
2021/05/17 02:13:38;;;;;;;259.02;32.70;;;;;;;15.78;nan;99573.09;5031634;28;20443;-79
2021/05/17 02:16:04;;;;;;;79.25;14.82;;;;;;;15.92;nan;99577.56;5031613;28;20686;-79
2021/05/17 02:18:30;;;;;;;72.50;14.43;;;;;;;15.97;nan;99577.78;5031941;28;20521;-79
2021/05/17 02:20:56;;;;;;;66.15;13.27;;;;;;;15.98;nan;99582.19;5013704;28;20037;-79
2021/05/17 02:23:21;;;;;;;137.50;23.92;;;;;;;16.04;nan;99584.09;5013595;28;20504;-79
2021/05/17 02:25:50;;;;;;;114.85;23.75;;;;;;;15.95;nan;99579.88;5031389;28;20042;-79
2021/05/17 02:28:16;;;;;;;297.58;42.05;;;;;;;15.95;nan;99590.72;5031471;28;20103;-80
2021/05/17 02:30:43;;;;;;;220.05;30.77;;;;;;;16.15;nan;99585.41;5031413;28;20476;-79
2021/05/17 02:33:09;;;;;;;249.10;30.88;;;;;;;16.06;nan;99584.72;5032560;28;20406;-79
2021/05/17 02:35:36;;;;;;;235.80;34.13;;;;;;;15.91;nan;99592.13;5013236;28;20029;-79
2021/05/17 02:38:02;;;;;;;273.15;42.97;;;;;;;15.97;nan;99588.63;5031066;28;20478;-79
2021/05/17 02:40:29;;;;;;;285.35;33.70;;;;;;;16.03;nan;99587.84;5012947;28;20072;-79
2021/05/17 02:43:06;;;;;;;380.67;56.15;;;;;;;15.88;nan;99589.81;5031046;28;20039;-79
2021/05/17 02:45:33;;;;;;;342.00;40.60;;;;;;;15.80;nan;99590.00;5029608;28;20040;-79
2021/05/17 02:48:00;;;;;;;357.33;44.47;;;;;;;15.67;nan;99587.13;5030508;28;20083;-79
2021/05/17 02:50:42;;;;;;;269.30;34.72;;;;;;;15.47;nan;99589.69;5013034;28;20437;-79
2021/05/17 02:53:29;;;;;;;383.45;55.10;;;;;;;15.98;nan;99587.63;5030735;28;20033;-79
2021/05/17 02:55:57;;;;;;;312.95;46.33;;;;;;;15.95;nan;99585.31;5012231;28;20040;-79
2021/05/17 02:58:24;;;;;;;130.07;28.85;;;;;;;15.96;nan;99589.69;5030337;28;20555;-79
2021/05/17 03:00:53;;;;;;;208.77;36.38;;;;;;;15.90;nan;99595.91;5030334;28;20037;-79
2021/05/17 03:03:24;;;;;;;111.38;28.17;;;;;;;15.95;nan;99595.31;5030620;28;20030;-79
2021/05/17 03:06:00;;;;;;;66.38;25.42;;;;;;;15.63;nan;99589.41;5012523;28;20033;-79
2021/05/17 03:08:28;;;;;;;32.22;18.58;;;;;;;15.84;nan;99594.81;5030651;28;20389;-79
2021/05/17 03:10:57;;;;;;;59.42;29.83;;;;;;;15.93;nan;99594.66;5012703;28;20175;-79
2021/05/17 03:13:24;;;;;;;80.13;29.08;;;;;;;16.05;nan;99593.06;5030445;28;20484;-79
2021/05/17 03:15:49;;;;;;;58.08;24.98;;;;;;;16.18;nan;99601.28;5030416;28;20036;-79
2021/05/17 03:18:16;;;;;;;124.90;36.42;;;;;;;16.23;nan;99597.97;5030718;28;20034;-79
2021/05/17 03:20:41;;;;;;;81.55;25.65;;;;;;;16.13;nan;99595.63;5014145;28;20029;-79
2021/05/17 03:23:11;;;;;;;149.18;29.40;;;;;;;16.11;nan;99602.28;5012281;28;20036;-79
2021/05/17 03:25:38;;;;;;;50.70;16.17;;;;;;;15.98;nan;99598.47;5012505;28;20026;-79
2021/05/17 03:28:05;;;;;;;38.97;17.33;;;;;;;15.94;nan;99593.63;5030000;28;20033;-79
2021/05/17 03:30:30;;;;;;;102.82;29.05;;;;;;;15.97;nan;99596.75;5030350;28;20544;-79
2021/05/17 03:32:56;;;;;;;54.40;27.50;;;;;;;15.90;nan;99590.47;5029761;28;20108;-79
2021/05/17 03:35:21;;;;;;;20.15;16.38;;;;;;;15.61;nan;99581.50;5030272;28;20371;-79
2021/05/17 03:37:47;;;;;;;74.30;35.75;;;;;;;15.64;nan;99596.50;5011730;28;20033;-79
2021/05/17 03:40:14;;;;;;;47.92;27.33;;;;;;;15.71;nan;99597.44;5029766;28;20032;-80
2021/05/17 03:42:40;;;;;;;55.15;29.85;;;;;;;15.72;nan;99607.22;5029795;28;20123;-80
2021/05/17 03:45:08;;;;;;;34.80;23.75;;;;;;;15.74;nan;99607.88;5029824;28;20057;-80
2021/05/17 03:47:33;;;;;;;48.28;27.90;;;;;;;15.86;nan;99602.75;5011702;28;20509;-80
2021/05/17 03:49:59;;;;;;;35.95;24.85;;;;;;;16.11;nan;99613.13;5029702;28;20041;-79
2021/05/17 03:52:25;;;;;;;50.88;27.27;;;;;;;16.08;nan;99607.06;5029526;28;20045;-79
2021/05/17 03:54:50;;;;;;;32.75;22.25;;;;;;;16.21;nan;99608.19;5029733;28;20033;-79
2021/05/17 03:57:16;;;;;;;39.83;24.65;;;;;;;16.12;nan;99603.97;5011797;28;20171;-79
2021/05/17 03:59:45;;;;;;;34.63;23.88;;;;;;;16.35;nan;99600.97;5029546;28;20029;-79
2021/05/17 04:02:11;;;;;;;25.83;19.25;;;;;;;16.35;nan;99607.22;5029523;28;20029;-79
2021/05/17 04:04:43;;;;;;;27.13;18.55;;;;;;;16.28;nan;99601.78;5029554;28;20040;-79
2021/05/17 04:15:11;;;;;;;34.88;23.88;;;;;;;15.99;nan;99610.97;5029637;28;20056;-79
2021/05/17 04:17:36;;;;;;;29.52;19.67;;;;;;;15.94;nan;99618.84;5030210;28;20021;-79
2021/05/17 04:20:02;;;;;;;35.20;22.50;;;;;;;16.11;nan;99621.28;5029597;28;20075;-79
2021/05/17 04:22:28;;;;;;;65.00;32.13;;;;;;;15.96;nan;99619.50;5011785;28;20032;-79
2021/05/17 04:24:53;;;;;;;50.78;27.33;;;;;;;15.88;nan;99618.81;5029408;28;20482;-79
2021/05/17 04:27:19;;;;;;;41.22;25.15;;;;;;;16.12;nan;99629.19;5029338;28;20040;-79
2021/05/17 04:29:44;;;;;;;62.03;31.50;;;;;;;16.25;nan;99629.31;5010728;28;20485;-79
2021/05/17 04:32:09;;;;;;;55.20;31.08;;;;;;;16.45;nan;99640.25;5010926;28;20080;-79
2021/05/17 04:34:35;;;;;;;79.82;36.85;;;;;;;16.46;nan;99638.38;5029465;28;20381;-79
2021/05/17 04:37:00;;;;;;;47.55;27.45;;;;;;;16.52;nan;99641.09;5029214;28;20429;-79
2021/05/17 04:39:25;;;;;;;47.28;26.98;;;;;;;16.60;nan;99644.72;5028973;28;20032;-79
2021/05/17 04:41:50;;;;;;;31.52;21.50;;;;;;;16.68;nan;99645.38;5011100;28;20031;-79
2021/05/17 04:44:16;;;;;;;29.20;21.55;;;;;;;16.74;nan;99647.28;5011192;28;20033;-79
2021/05/17 04:46:41;;;;;;;64.78;35.28;;;;;;;17.02;nan;99645.50;5029567;28;20082;-79
2021/05/17 04:49:06;;;;;;;49.38;28.73;;;;;;;17.17;nan;99652.47;5029192;28;20026;-79
2021/05/17 04:51:32;;;;;;;66.70;34.95;;;;;;;16.97;nan;99646.13;5032307;28;20037;-79
2021/05/17 04:53:57;;;;;;;43.90;28.25;;;;;;;17.17;nan;99654.31;5029170;28;20040;-79
2021/05/17 04:56:22;;;;;;;36.33;25.48;;;;;;;17.32;nan;99644.13;5029056;28;20477;-79
2021/05/17 04:58:48;;;;;;;28.77;21.05;;;;;;;17.34;nan;99642.03;5028846;28;20164;-80
2021/05/17 05:01:13;;;;;;;28.55;21.17;;;;;;;17.26;nan;99653.09;5028567;28;20064;-80
2021/05/17 05:03:38;;;;;;;41.75;26.83;;;;;;;17.39;nan;99653.13;5029270;28;20049;-80
2021/05/17 05:06:04;;;;;;;26.13;20.90;;;;;;;17.32;nan;99651.44;5028702;28;20033;-79
2021/05/17 05:08:29;;;;;;;48.60;29.10;;;;;;;17.50;nan;99661.72;5029843;28;20030;-79
2021/05/17 05:10:55;;;;;;;25.70;19.83;;;;;;;17.59;nan;99665.91;5032673;28;20511;-79
2021/05/17 05:13:20;;;;;;;48.75;27.77;;;;;;;17.62;nan;99665.50;5033256;28;20034;-79
2021/05/17 05:15:50;;;;;;;51.83;32.90;;;;;;;17.83;nan;99669.94;5032973;28;20110;-79
2021/05/17 05:18:16;;;;;;;58.53;34.25;;;;;;;17.88;nan;99667.44;5032866;28;20026;-79
2021/05/17 05:20:41;;;;;;;28.83;20.90;;;;;;;17.84;nan;99674.31;5017817;28;20029;-79
2021/05/17 05:23:15;;;;;;;27.45;21.90;;;;;;;17.54;nan;99674.69;5015208;28;20452;-79
2021/05/17 05:28:11;;;;;;;33.70;24.00;;;;;;;17.54;nan;99677.41;5032736;28;20041;-79
2021/05/17 05:30:54;;;;;;;50.03;31.95;;;;;;;17.65;nan;99675.94;5032170;28;20264;-79
2021/05/17 05:33:19;;;;;;;25.80;19.50;;;;;;;17.77;nan;99677.03;5031986;28;20045;-79
2021/05/17 05:35:46;;;;;;;31.58;22.55;;;;;;;17.53;nan;99677.59;5032097;28;20044;-79
2021/05/17 05:38:12;;;;;;;25.83;20.75;;;;;;;17.62;nan;99682.63;5032089;28;20037;-79
2021/05/17 05:40:37;;;;;;;25.33;21.33;;;;;;;17.68;nan;99675.53;5013982;28;20552;-79
2021/05/17 05:43:03;;;;;;;27.15;20.80;;;;;;;17.39;nan;99685.75;5032278;28;20060;-79
2021/05/17 05:45:31;;;;;;;30.67;22.52;;;;;;;17.49;nan;99692.66;5032104;28;20473;-79
2021/05/17 05:47:56;;;;;;;32.33;25.02;;;;;;;17.29;nan;99689.88;5014344;28;20040;-79
2021/05/17 05:50:21;;;;;;;35.88;26.52;;;;;;;17.89;nan;99688.97;5031937;28;20033;-79
2021/05/17 05:52:47;;;;;;;34.83;24.42;;;;;;;17.86;nan;99688.53;5031392;28;20033;-79
2021/05/17 05:55:13;;;;;;;34.85;25.40;;;;;;;17.87;nan;99690.22;5012837;28;20117;-79
2021/05/17 05:57:43;;;;;;;33.22;25.48;;;;;;;18.01;nan;99689.19;5012683;28;20409;-79
2021/05/17 06:00:12;;;;;;;33.55;23.30;;;;;;;18.10;nan;99695.25;5030484;28;20128;-80
2021/05/17 06:02:38;;;;;;;33.22;22.08;;;;;;;17.54;nan;99701.03;5012477;28;20055;-79
2021/05/17 06:05:05;;;;;;;29.98;22.45;;;;;;;17.42;nan;99701.66;5030990;28;20048;-79
2021/05/17 06:07:31;;;;;;;32.85;24.08;;;;;;;17.66;nan;99694.78;5031868;28;20033;-80
2021/05/17 06:09:56;;;;;;;32.15;23.40;;;;;;;17.37;nan;99711.44;5031945;28;20033;-80
2021/05/17 06:12:22;;;;;;;41.60;28.63;;;;;;;17.63;nan;99708.81;5031777;28;20033;-79
2021/05/17 06:14:52;;;;;;;30.90;22.23;;;;;;;17.86;nan;99702.16;5013602;28;20033;-79
2021/05/17 06:17:18;;;;;;;19.45;17.23;;;;;;;17.94;nan;99709.25;5013727;28;20053;-79
2021/05/17 06:19:43;;;;;;;23.73;17.10;;;;;;;18.16;nan;99704.44;5031276;28;20037;-79
2021/05/17 06:22:09;;;;;;;22.65;18.92;;;;;;;18.19;nan;99710.31;5031441;28;20075;-79
2021/05/17 06:24:34;;;;;;;19.90;17.33;;;;;;;18.49;nan;99707.13;5013634;28;20457;-80
2021/05/17 06:27:00;;;;;;;28.38;22.60;;;;;;;18.30;nan;99701.47;5031293;28;20374;-79
2021/05/17 06:29:26;;;;;;;21.52;17.73;;;;;;;17.99;nan;99704.03;5013553;28;20526;-79
2021/05/17 06:31:51;;;;;;;19.23;17.13;;;;;;;18.42;nan;99706.28;5031352;28;20067;-79
2021/05/17 06:34:17;;;;;;;23.05;18.45;;;;;;;18.33;nan;99709.25;5031255;28;20441;-79
2021/05/17 06:36:42;;;;;;;21.55;17.38;;;;;;;18.49;nan;99709.84;5030406;28;20026;-79
2021/05/17 06:39:10;;;;;;;20.30;16.00;;;;;;;18.38;nan;99716.78;5030108;28;20199;-79
2021/05/17 06:41:36;;;;;;;20.60;16.73;;;;;;;18.52;nan;99723.03;5029744;28;20536;-79
2021/05/17 06:44:02;;;;;;;17.77;15.43;;;;;;;18.28;nan;99722.66;5014613;28;20844;-79
2021/05/17 06:46:28;;;;;;;16.20;14.60;;;;;;;18.43;nan;99730.59;5033529;28;20025;-79
2021/05/17 06:48:53;;;;;;;21.52;16.27;;;;;;;18.43;nan;99727.88;5029686;28;20040;-79
2021/05/17 06:51:19;;;;;;;16.30;14.48;;;;;;;18.13;nan;99725.59;5030055;28;20109;-79
2021/05/17 06:53:46;;;;;;;18.85;14.70;;;;;;;18.18;nan;99724.94;5030748;28;20021;-79
2021/05/17 06:56:29;;;;;;;14.48;12.95;;;;;;;18.59;nan;99727.41;5030946;28;20504;-79
2021/05/17 06:58:58;;;;;;;16.10;14.43;;;;;;;18.72;nan;99731.97;5030909;28;20120;-79
2021/05/17 07:01:26;;;;;;;20.15;17.48;;;;;;;18.99;nan;99738.22;5030858;28;20619;-79
2021/05/17 07:03:52;;;;;;;19.50;16.42;;;;;;;19.11;nan;99740.28;5012876;28;20032;-79
2021/05/17 07:06:26;;;;;;;17.27;15.48;;;;;;;18.52;nan;99739.38;5030627;28;20034;-80
2021/05/17 07:11:54;;;;;;;15.82;14.13;;;;;;;18.63;nan;99738.72;5022047;28;20088;-80
2021/05/17 07:14:20;;;;;;;17.85;15.18;;;;;;;18.73;nan;99741.88;5011778;28;20045;-79
2021/05/17 07:16:45;;;;;;;17.20;14.02;;;;;;;18.79;nan;99743.75;5026956;28;20571;-79
2021/05/17 07:19:11;;;;;;;14.85;13.25;;;;;;;18.38;nan;99746.72;5028265;28;20037;-79
2021/05/17 07:24:21;;;;;;;16.88;15.05;;;;;;;18.45;nan;99744.81;5012317;28;20453;-79
2021/05/17 07:26:48;;;;;;;17.83;15.90;;;;;;;19.21;nan;99746.94;5020088;28;20072;-79
2021/05/17 07:29:14;;;;;;;19.52;16.63;;;;;;;19.60;nan;99750.50;5008741;28;20514;-78
2021/05/17 07:31:40;;;;;;;19.38;16.10;;;;;;;19.74;nan;99749.41;5025901;28;20030;-79
2021/05/17 07:34:05;;;;;;;19.15;14.88;;;;;;;19.78;nan;99748.97;5026857;28;20040;-79
2021/05/17 07:36:31;;;;;;;22.25;18.05;;;;;;;19.71;nan;99749.00;5026713;28;20026;-80
2021/05/17 07:38:56;;;;;;;19.58;17.00;;;;;;;19.79;nan;99746.00;5027540;28;20037;-79
2021/05/17 07:41:22;;;;;;;21.05;17.52;;;;;;;20.18;nan;99742.16;5024762;28;20078;-80
2021/05/17 07:43:47;;;;;;;17.52;15.02;;;;;;;19.88;nan;99747.41;5008342;28;20057;-79
2021/05/17 07:46:13;;;;;;;19.15;15.90;;;;;;;19.93;nan;99750.34;5015681;23;20116;-78
2021/05/17 07:51:24;;;;;;;18.40;14.88;;;;;;;20.24;nan;99745.88;5026209;28;20048;-79
2021/05/17 07:53:49;;;;;;;17.88;13.75;;;;;;;19.93;nan;99752.22;5006660;28;20033;-80
2021/05/17 07:56:17;;;;;;;20.65;14.77;;;;;;;19.94;nan;99745.69;5006101;28;20120;-81
2021/05/17 07:58:44;;;;;;;18.88;16.42;;;;;;;20.22;nan;99747.16;5006750;28;20041;-80
2021/05/17 08:01:11;;;;;;;22.70;16.23;;;;;;;20.40;nan;99756.22;5017724;28;20032;-80
2021/05/17 08:03:37;;;;;;;25.05;18.50;;;;;;;19.97;nan;99753.44;5022423;28;20125;-79
2021/05/17 08:06:02;;;;;;;21.35;17.52;;;;;;;19.85;nan;99753.31;5022067;28;20436;-80
2021/05/17 08:08:28;;;;;;;19.48;15.35;;;;;;;19.46;nan;99755.19;5011664;28;20034;-80
2021/05/17 08:10:53;;;;;;;18.23;14.90;;;;;;;19.51;nan;99762.75;5004685;28;20084;-80
2021/05/17 08:13:19;;;;;;;19.25;14.38;;;;;;;19.00;nan;99756.22;5005662;28;20135;-80
2021/05/17 08:15:44;;;;;;;21.67;15.13;;;;;;;18.55;nan;99758.00;5021823;28;20025;-80
2021/05/17 08:18:10;;;;;;;22.67;15.73;;;;;;;18.95;nan;99747.06;5008326;28;20044;-80
2021/05/17 08:20:35;;;;;;;22.02;15.95;;;;;;;19.33;nan;99758.00;5018317;28;20033;-80
2021/05/17 08:23:00;;;;;;;20.75;15.18;;;;;;;19.24;nan;99757.41;5016310;28;20564;-80
2021/05/17 08:25:25;;;;;;;21.58;13.50;;;;;;;19.13;nan;99752.66;5013657;28;20149;-80
2021/05/17 08:27:51;;;;;;;20.33;13.35;;;;;;;19.33;nan;99754.44;5022713;28;20060;-80
2021/05/17 08:30:17;;;;;;;21.50;14.68;;;;;;;19.12;nan;99748.22;5010314;28;20097;-80
2021/05/17 08:32:42;;;;;;;22.38;12.48;;;;;;;19.36;nan;99754.84;5017946;28;20030;-80
2021/05/17 08:35:08;;;;;;;22.83;13.75;;;;;;;18.67;nan;99755.47;5017520;28;20284;-80
2021/05/17 08:37:33;;;;;;;21.90;13.70;;;;;;;19.19;nan;99759.09;5010877;28;20041;-80
2021/05/17 08:39:59;;;;;;;16.40;12.05;;;;;;;19.18;nan;99757.44;5024684;28;20200;-80
2021/05/17 08:42:27;;;;;;;18.02;12.90;;;;;;;18.99;nan;99753.75;5021502;28;20057;-80
2021/05/17 08:44:52;;;;;;;25.50;13.88;;;;;;;19.21;nan;99757.84;5013398;28;20029;-80
2021/05/17 08:47:18;;;;;;;20.05;13.43;;;;;;;19.61;nan;99768.53;5012801;28;20494;-79
2021/05/17 08:49:44;;;;;;;20.58;13.77;;;;;;;19.78;nan;99762.63;5007592;28;20033;-80
2021/05/17 08:52:10;;;;;;;19.52;13.55;;;;;;;20.07;nan;99767.44;5004182;28;20033;-80
2021/05/17 08:54:36;;;;;;;19.15;12.05;;;;;;;20.29;nan;99764.31;5012600;28;20048;-80
2021/05/17 08:57:01;;;;;;;21.83;12.93;;;;;;;20.74;nan;99761.41;5026051;28;20036;-80
2021/05/17 08:59:27;;;;;;;26.85;14.00;;;;;;;19.81;nan;99771.19;5012307;28;20034;-80
2021/05/17 09:01:52;;;;;;;20.83;12.55;;;;;;;20.72;nan;99758.88;5006280;28;20030;-81
2021/05/17 09:04:17;;;;;;;18.15;13.20;;;;;;;20.19;nan;99764.81;5005657;28;20072;-80
2021/05/17 09:06:50;;;;;;;20.75;13.82;;;;;;;20.15;nan;99764.44;5013320;28;20053;-80
2021/05/17 09:09:36;;;;;;;24.70;13.60;;;;;;;20.10;nan;99758.78;5013147;28;20062;-80
2021/05/17 09:12:11;;;;;;;32.65;13.10;;;;;;;19.90;nan;99758.97;5005170;28;20440;-79
2021/05/17 09:14:38;;;;;;;22.20;13.68;;;;;;;20.49;nan;99758.69;5014174;28;20728;-80
2021/05/17 09:17:09;;;;;;;25.17;13.13;;;;;;;20.75;nan;99761.16;5014972;28;20030;-80
2021/05/17 09:19:37;;;;;;;24.48;12.85;;;;;;;20.80;nan;99763.22;5020873;28;20037;-80
2021/05/17 09:22:19;;;;;;;23.35;14.00;;;;;;;20.28;nan;99757.19;5009442;28;20427;-80
2021/05/17 09:24:46;;;;;;;23.80;14.95;;;;;;;20.04;nan;99761.59;5017339;28;20030;-79
2021/05/17 09:27:18;;;;;;;18.15;12.18;;;;;;;20.37;nan;99759.41;5017284;28;20033;-80
2021/05/17 09:29:47;;;;;;;19.67;12.75;;;;;;;19.88;nan;99768.41;5005068;28;20026;-80
2021/05/17 09:32:17;;;;;;;21.65;9.73;;;;;;;19.58;nan;99773.59;4993915;28;20655;-80
2021/05/17 09:34:44;;;;;;;20.95;10.82;;;;;;;19.96;nan;99770.91;5017493;28;20056;-80
2021/05/17 09:37:10;;;;;;;23.35;12.13;;;;;;;20.05;nan;99763.25;5017388;28;20026;-80
2021/05/17 09:39:37;;;;;;;20.38;9.98;;;;;;;20.03;nan;99774.41;5009921;28;20038;-79
2021/05/17 09:42:05;;;;;;;19.73;9.20;;;;;;;20.03;nan;99771.66;5022110;28;20034;-80
2021/05/17 09:44:31;;;;;;;18.70;8.00;;;;;;;19.95;nan;99774.66;5008340;28;20038;-80
2021/05/17 09:47:16;;;;;;;18.30;8.80;;;;;;;20.04;nan;99767.88;5015946;28;20080;-80
2021/05/17 09:49:52;;;;;;;17.58;7.38;;;;;;;19.94;nan;99773.00;5021461;28;20057;-80
2021/05/17 09:52:28;;;;;;;20.77;8.32;;;;;;;19.40;nan;99775.16;5011412;28;20025;-80
2021/05/17 09:55:04;;;;;;;19.90;7.72;;;;;;;19.50;nan;99771.97;5016943;28;20034;-79
2021/05/17 09:57:31;;;;;;;17.58;8.95;;;;;;;20.22;nan;99769.84;5010380;28;20108;-80
2021/05/17 09:59:59;;;;;;;15.65;7.15;;;;;;;20.26;nan;99762.88;5012161;28;20033;-80
2021/05/17 10:02:35;;;;;;;19.58;6.88;;;;;;;20.61;nan;99776.88;5024360;28;20449;-80
2021/05/17 10:05:18;;;;;;;12.40;5.97;;;;;;;20.92;nan;99774.25;5002307;28;20046;-80
2021/05/17 10:07:46;;;;;;;15.88;6.50;;;;;;;21.15;nan;99781.75;5024698;28;20542;-79
2021/05/17 10:10:13;;;;;;;14.07;6.57;;;;;;;21.17;nan;99777.72;4996023;28;20494;-79
2021/05/17 10:12:39;;;;;;;11.80;5.70;;;;;;;21.42;nan;99780.41;5007084;28;20060;-79
2021/05/17 10:15:07;;;;;;;16.90;6.55;;;;;;;20.98;nan;99781.53;5019338;28;20029;-79
2021/05/17 10:17:34;;;;;;;13.95;5.53;;;;;;;21.11;nan;99771.28;5007523;28;20153;-80
2021/05/17 10:20:07;;;;;;;16.25;6.60;;;;;;;21.06;nan;99773.88;5025273;28;20042;-80
2021/05/17 10:22:34;;;;;;;16.10;5.20;;;;;;;21.22;nan;99775.16;5015075;28;20036;-80
2021/05/17 10:25:03;;;;;;;13.25;5.63;;;;;;;21.26;nan;99773.63;5018055;28;20057;-80
2021/05/17 10:27:30;;;;;;;14.18;4.57;;;;;;;20.91;nan;99772.56;5021881;28;20497;-80
2021/05/17 10:30:09;;;;;;;19.02;5.25;;;;;;;21.23;nan;99759.59;5011392;28;20043;-80
2021/05/17 10:33:01;;;;;;;15.32;5.03;;;;;;;21.49;nan;99766.66;5028041;28;20041;-79
2021/05/17 10:35:49;;;;;;;12.30;4.57;;;;;;;21.56;nan;99767.38;5008143;28;20056;-80
2021/05/17 10:40:54;;;;;;;12.40;4.47;;;;;;;21.87;nan;99768.22;5019843;28;20026;-80
2021/05/17 10:43:47;;;;;;;16.87;5.13;;;;;;;21.67;nan;99780.28;5020664;28;20469;-80
2021/05/17 10:49:18;;;;;;;12.80;4.28;;;;;;;22.05;nan;99767.31;5018256;28;20088;-80
2021/05/17 10:51:44;;;;;;;22.45;6.20;;;;;;;22.31;nan;99761.41;5008263;28;20136;-80
2021/05/17 10:54:30;;;;;;;13.20;4.43;;;;;;;21.48;nan;99768.53;5007188;28;20026;-80
2021/05/17 10:57:00;;;;;;;13.63;4.28;;;;;;;21.87;nan;99768.22;5010293;28;20033;-80
2021/05/17 11:02:43;;;;;;;13.07;5.15;;;;;;;21.85;nan;99768.44;5004080;28;20452;-81
2021/05/17 11:05:19;;;;;;;14.77;5.95;;;;;;;21.28;nan;99762.47;5022462;28;20029;-81
2021/05/17 11:07:47;;;;;;;13.40;4.30;;;;;;;21.96;nan;99769.53;5027538;28;20029;-80
2021/05/17 11:10:42;;;;;;;9.77;3.38;;;;;;;22.10;nan;99768.28;5004522;28;20021;-81
2021/05/17 11:13:14;;;;;;;12.35;4.07;;;;;;;21.83;nan;99762.38;5003595;28;20080;-80
2021/05/17 11:15:53;;;;;;;8.82;3.90;;;;;;;22.21;nan;99763.91;5022898;28;20059;-80
2021/05/17 11:18:33;;;;;;;10.25;3.55;;;;;;;22.56;nan;99771.31;4993568;28;20061;-81
2021/05/17 11:21:00;;;;;;;13.05;3.80;;;;;;;22.70;nan;99759.03;5005805;28;20465;-82
2021/05/17 11:23:31;;;;;;;11.55;4.20;;;;;;;22.73;nan;99763.22;5007439;28;20033;-81
2021/05/17 11:26:02;;;;;;;9.75;3.38;;;;;;;23.29;nan;99758.97;5009389;28;20398;-80
2021/05/17 11:28:40;;;;;;;8.57;3.30;;;;;;;23.15;nan;99766.66;5006322;28;20042;-80
2021/05/17 11:31:06;;;;;;;10.40;3.55;;;;;;;22.41;nan;99767.16;5000875;28;21101;-80
2021/05/17 11:33:56;;;;;;;15.77;3.95;;;;;;;22.24;nan;99769.75;5005480;28;20034;-80
2021/05/17 11:36:43;;;;;;;11.00;3.88;;;;;;;22.11;nan;99769.94;4997535;28;20041;-80
2021/05/17 11:39:15;;;;;;;8.75;3.65;;;;;;;22.05;nan;99781.00;5005113;28;20408;-80
2021/05/17 11:41:48;;;;;;;12.52;4.20;;;;;;;22.01;nan;99775.16;5022606;28;20061;-81
2021/05/17 11:44:27;;;;;;;12.00;3.42;;;;;;;22.05;nan;99772.78;4994203;28;20109;-80
2021/05/17 11:47:06;;;;;;;12.73;3.47;;;;;;;22.33;nan;99774.88;5005016;28;20526;-80
2021/05/17 11:49:34;;;;;;;8.90;2.85;;;;;;;22.39;nan;99780.25;5020995;28;20551;-80
2021/05/17 11:52:08;;;;;;;10.48;3.20;;;;;;;22.64;nan;99769.06;5010214;28;20038;-81
2021/05/17 11:54:39;;;;;;;9.52;3.00;;;;;;;22.89;nan;99777.00;5019686;28;20206;-80
2021/05/17 11:57:05;;;;;;;7.00;2.73;;;;;;;22.98;nan;99782.19;5017476;28;20060;-81
2021/05/17 11:59:32;;;;;;;12.70;3.42;;;;;;;22.35;nan;99784.53;5006055;28;20037;-81
2021/05/17 12:02:06;;;;;;;12.55;3.47;;;;;;;22.37;nan;99793.34;5006977;28;20026;-80
2021/05/17 12:04:34;;;;;;;12.55;3.33;;;;;;;22.11;nan;99791.84;5014835;28;20087;-80
2021/05/17 12:07:04;;;;;;;9.75;2.80;;;;;;;22.15;nan;99786.72;4998443;28;20037;-80